Time;durP1;ratioP1;P1;durP2;ratioP2;P2;SDS_P1;SDS_P2;PMS_P1;PMS_P2;Temp;Humidity;BMP_temperature;BMP_pressure;BME280_temperature;BME280_humidity;BME280_pressure;Samples;Min_cycle;Max_cycle;Signal;HPM_P1;HPM_P2
2021/10/01 00:00:05;;;;;;;6.82;5.00;;;;;;;5.40;100.00;96841.22;1024872;28;20326;-49
2021/10/01 00:00:36;;;;;;;8.05;4.60;;;;;;;5.41;100.00;96848.13;1020980;29;20530;-49
2021/10/01 00:01:07;;;;;;;7.57;4.72;;;;;;;5.40;100.00;96836.03;1020555;29;20352;-49
2021/10/01 00:01:37;;;;;;;8.40;4.60;;;;;;;5.40;100.00;96845.59;1016662;29;20034;-50
2021/10/01 00:02:08;;;;;;;7.65;4.28;;;;;;;5.41;100.00;96842.94;1024604;29;20031;-49
2021/10/01 00:02:39;;;;;;;7.07;4.47;;;;;;;5.40;100.00;96851.63;1028510;28;20067;-49
2021/10/01 00:03:10;;;;;;;6.35;4.75;;;;;;;5.43;100.00;96845.50;1024624;28;20432;-49
2021/10/01 00:03:40;;;;;;;6.70;4.70;;;;;;;5.41;100.00;96842.94;1028510;28;20038;-50
2021/10/01 00:04:12;;;;;;;7.22;4.55;;;;;;;5.41;100.00;96844.72;1028875;28;20023;-49
2021/10/01 00:04:42;;;;;;;6.20;4.85;;;;;;;5.41;100.00;96847.31;1033327;28;20045;-49
2021/10/01 00:05:13;;;;;;;8.13;5.03;;;;;;;5.39;100.00;96839.56;1037471;28;20765;-51
2021/10/01 00:05:44;;;;;;;7.35;4.78;;;;;;;5.42;100.00;96846.38;1029341;28;20019;-48
2021/10/01 00:06:15;;;;;;;6.85;4.65;;;;;;;5.42;100.00;96846.38;1029630;28;20023;-49
2021/10/01 00:06:45;;;;;;;10.00;5.22;;;;;;;5.40;100.00;96850.78;1025689;28;20031;-48
2021/10/01 00:07:17;;;;;;;7.50;5.20;;;;;;;5.40;100.00;96845.59;1025451;28;20362;-49
2021/10/01 00:07:49;;;;;;;7.55;5.03;;;;;;;5.38;100.00;96845.63;1029399;28;20026;-49
2021/10/01 00:08:19;;;;;;;7.80;4.90;;;;;;;5.38;100.00;96848.25;1029630;28;20250;-50
2021/10/01 00:08:50;;;;;;;8.32;4.20;;;;;;;5.39;100.00;96844.75;1024939;29;20413;-49
2021/10/01 00:09:21;;;;;;;7.57;5.15;;;;;;;5.41;100.00;96848.13;1026218;28;20098;-50
2021/10/01 00:09:52;;;;;;;11.23;4.72;;;;;;;5.40;100.00;96845.59;1029403;28;20018;-50
2021/10/01 00:10:22;;;;;;;9.25;4.72;;;;;;;5.39;100.00;96844.75;1029245;28;20259;-49
2021/10/01 00:10:53;;;;;;;6.88;5.18;;;;;;;5.40;100.00;96843.00;1029088;28;20025;-49
2021/10/01 00:11:24;;;;;;;9.65;5.57;;;;;;;5.37;100.00;96843.97;1029427;28;20077;-48
2021/10/01 00:11:55;;;;;;;6.93;4.55;;;;;;;5.39;100.00;96846.50;1033315;28;20551;-49
2021/10/01 00:12:26;;;;;;;6.10;4.63;;;;;;;5.38;100.00;96839.59;1029151;28;20100;-49
2021/10/01 00:12:56;;;;;;;11.10;4.63;;;;;;;5.38;100.00;96847.41;1029373;28;20274;-50
2021/10/01 00:13:27;;;;;;;6.90;4.28;;;;;;;5.38;100.00;96848.25;1029170;28;20802;-50
2021/10/01 00:13:58;;;;;;;6.25;4.60;;;;;;;5.36;100.00;96850.03;1029358;28;20046;-49
2021/10/01 00:14:29;;;;;;;6.80;4.47;;;;;;;5.37;100.00;96845.72;1033049;28;20480;-48
2021/10/01 00:15:00;;;;;;;7.88;4.50;;;;;;;5.37;100.00;96849.16;1025404;28;20091;-49
2021/10/01 00:15:31;;;;;;;8.18;4.55;;;;;;;5.35;100.00;96839.69;1033092;28;20076;-49
2021/10/01 00:16:03;;;;;;;6.68;4.43;;;;;;;5.34;100.00;96840.63;1029088;28;20022;-48
2021/10/01 00:16:34;;;;;;;7.40;4.80;;;;;;;5.34;100.00;96838.03;1024700;29;20264;-49
2021/10/01 00:17:05;;;;;;;8.35;4.90;;;;;;;5.34;100.00;96838.03;1020851;29;20264;-50
2021/10/01 00:17:36;;;;;;;7.78;4.60;;;;;;;5.33;100.00;96834.59;1020658;29;20837;-50
2021/10/01 00:18:07;;;;;;;8.75;5.13;;;;;;;5.32;100.00;96845.88;1024414;28;20042;-49
2021/10/01 00:18:37;;;;;;;6.93;4.43;;;;;;;5.32;100.00;96842.44;1025085;29;20257;-48
2021/10/01 00:19:08;;;;;;;6.88;4.45;;;;;;;5.29;100.00;96838.16;1024991;28;20027;-49
2021/10/01 00:19:39;;;;;;;8.15;5.20;;;;;;;5.29;100.00;96839.94;1029676;28;20390;-49
2021/10/01 00:20:10;;;;;;;7.60;4.80;;;;;;;5.28;100.00;96835.66;1037045;28;20018;-50
2021/10/01 00:20:41;;;;;;;6.10;5.20;;;;;;;5.28;100.00;96840.84;1033048;28;20273;-48
2021/10/01 00:21:11;;;;;;;9.18;5.00;;;;;;;5.27;100.00;96837.38;1033407;28;20022;-50
2021/10/01 00:21:42;;;;;;;6.28;4.55;;;;;;;5.26;100.00;96841.72;1033300;28;20484;-50
2021/10/01 00:22:13;;;;;;;8.80;4.75;;;;;;;5.25;100.00;96842.66;1033106;28;20026;-49
2021/10/01 00:22:44;;;;;;;7.78;4.40;;;;;;;5.23;100.00;96841.81;1029031;28;20027;-51
2021/10/01 00:23:15;;;;;;;8.50;4.70;;;;;;;5.24;100.00;96842.69;1028742;28;20673;-49
2021/10/01 00:23:46;;;;;;;8.68;4.63;;;;;;;5.23;100.00;96838.38;1024989;29;20023;-49
2021/10/01 00:24:16;;;;;;;6.32;4.60;;;;;;;5.24;100.00;96840.94;1025511;28;20074;-48
2021/10/01 00:24:47;;;;;;;7.30;4.75;;;;;;;5.23;100.00;96841.81;1029173;28;20109;-48
2021/10/01 00:25:17;;;;;;;6.03;4.07;;;;;;;5.24;100.00;96840.94;1028570;28;20023;-51
2021/10/01 00:25:48;;;;;;;6.32;4.45;;;;;;;5.25;100.00;96836.59;1024760;28;20023;-53
2021/10/01 00:26:19;;;;;;;8.77;4.93;;;;;;;5.24;100.00;96840.94;1025238;28;20015;-49
2021/10/01 00:26:50;;;;;;;7.53;4.57;;;;;;;5.23;100.00;96836.63;1024850;28;20043;-50
2021/10/01 00:27:21;;;;;;;7.40;4.97;;;;;;;5.24;100.00;96846.13;1021197;28;20831;-48
2021/10/01 00:27:52;;;;;;;7.25;4.78;;;;;;;5.23;100.00;96841.81;1020653;28;20051;-49
2021/10/01 00:28:22;;;;;;;8.50;5.10;;;;;;;5.23;100.00;96841.81;1020970;29;20031;-49
2021/10/01 00:28:53;;;;;;;7.55;4.80;;;;;;;5.24;100.00;96840.94;1024859;29;20412;-50
2021/10/01 00:29:24;;;;;;;8.90;5.05;;;;;;;5.23;100.00;96839.22;1024795;28;20015;-49
2021/10/01 00:29:54;;;;;;;7.07;5.20;;;;;;;5.23;100.00;96841.81;1024786;29;20035;-50
2021/10/01 00:30:25;;;;;;;7.82;5.28;;;;;;;5.23;100.00;96834.03;1024774;29;20422;-50
2021/10/01 00:30:56;;;;;;;9.43;4.97;;;;;;;5.24;100.00;96834.91;1029069;28;20045;-50
2021/10/01 00:31:27;;;;;;;6.32;4.80;;;;;;;5.25;100.00;96836.59;1028312;28;20397;-50
2021/10/01 00:31:57;;;;;;;6.82;4.75;;;;;;;5.25;100.00;96839.19;1028728;28;20525;-49
2021/10/01 00:32:28;;;;;;;8.85;5.10;;;;;;;5.23;100.00;96828.84;1029269;28;20062;-49
2021/10/01 00:32:59;;;;;;;7.53;5.32;;;;;;;5.24;100.00;96830.53;1028738;28;20033;-50
2021/10/01 00:33:29;;;;;;;6.70;4.65;;;;;;;5.25;100.00;96828.78;1021119;28;20119;-49
2021/10/01 00:34:01;;;;;;;8.10;4.43;;;;;;;5.24;100.00;96830.53;1021056;29;20347;-50
2021/10/01 00:34:32;;;;;;;7.47;4.50;;;;;;;5.24;100.00;96830.53;1021425;29;20023;-49
2021/10/01 00:35:04;;;;;;;7.05;4.60;;;;;;;5.23;100.00;96833.19;1025291;28;20266;-51
2021/10/01 00:35:34;;;;;;;7.68;4.72;;;;;;;5.24;100.00;96834.91;1028950;28;20409;-50
2021/10/01 00:36:05;;;;;;;7.22;4.47;;;;;;;5.24;100.00;96830.53;1032603;28;20257;-48
2021/10/01 00:36:36;;;;;;;5.88;4.20;;;;;;;5.22;100.00;96827.16;1032593;28;20038;-49
2021/10/01 00:37:07;;;;;;;6.63;4.65;;;;;;;5.23;100.00;96826.25;1024621;29;20524;-49
2021/10/01 00:37:37;;;;;;;7.43;4.57;;;;;;;5.22;100.00;96824.56;1024761;29;20251;-49
2021/10/01 00:38:09;;;;;;;8.98;4.78;;;;;;;5.23;100.00;96831.44;1025006;29;20008;-50
2021/10/01 00:38:40;;;;;;;7.03;4.38;;;;;;;5.21;100.00;96824.59;1029178;28;20010;-49
2021/10/01 00:39:11;;;;;;;7.22;4.80;;;;;;;5.22;100.00;96828.91;1036972;28;20268;-49
2021/10/01 00:39:41;;;;;;;7.97;4.30;;;;;;;5.19;100.00;96832.44;1036810;28;20343;-49
2021/10/01 00:40:12;;;;;;;7.05;4.22;;;;;;;5.18;100.00;96822.09;1032649;28;20019;-48
2021/10/01 00:40:43;;;;;;;6.40;4.72;;;;;;;5.17;100.00;96818.66;1032531;28;20110;-50
2021/10/01 00:41:13;;;;;;;9.43;4.93;;;;;;;5.16;100.00;96821.31;1024502;29;20015;-48
2021/10/01 00:41:44;;;;;;;6.82;4.53;;;;;;;5.15;100.00;96827.44;1024929;29;20054;-50
2021/10/01 00:42:15;;;;;;;8.05;4.70;;;;;;;5.12;100.00;96824.91;1020767;29;20020;-48
2021/10/01 00:42:45;;;;;;;7.57;4.70;;;;;;;5.13;100.00;96821.44;1020865;28;20026;-48
2021/10/01 00:43:16;;;;;;;8.65;4.72;;;;;;;5.13;100.00;96821.44;1024887;28;20015;-49
2021/10/01 00:43:47;;;;;;;6.60;4.82;;;;;;;5.14;100.00;96820.53;1024724;29;20815;-50
2021/10/01 00:44:18;;;;;;;10.02;4.78;;;;;;;5.15;100.00;96830.03;1024395;29;20027;-48
2021/10/01 00:44:49;;;;;;;7.22;4.88;;;;;;;5.18;100.00;96822.09;1032187;28;20045;-49
2021/10/01 00:45:20;;;;;;;7.57;4.60;;;;;;;5.15;100.00;96827.44;1028168;28;20114;-49
2021/10/01 00:45:51;;;;;;;7.68;5.10;;;;;;;5.14;100.00;96820.53;1027966;28;20264;-49
2021/10/01 00:46:22;;;;;;;9.48;4.80;;;;;;;5.13;100.00;96822.28;1024251;28;20056;-50
2021/10/01 00:46:53;;;;;;;7.75;4.93;;;;;;;5.13;100.00;96819.69;1021069;29;20780;-51
2021/10/01 00:47:24;;;;;;;6.45;5.10;;;;;;;5.13;100.00;96827.47;1032785;28;20361;-49
2021/10/01 00:47:55;;;;;;;7.70;4.72;;;;;;;5.14;100.00;96823.97;1028865;28;20023;-49
2021/10/01 00:48:25;;;;;;;7.88;5.20;;;;;;;5.16;100.00;96829.09;1032991;28;20266;-50
2021/10/01 00:48:56;;;;;;;11.68;5.30;;;;;;;5.16;100.00;96818.72;1032660;28;20054;-50
2021/10/01 00:49:27;;;;;;;6.35;5.28;;;;;;;5.14;100.00;96818.75;1033268;28;20021;-49
2021/10/01 00:49:57;;;;;;;8.30;4.90;;;;;;;5.16;100.00;96821.31;1036665;28;20040;-50
2021/10/01 00:50:29;;;;;;;7.15;4.82;;;;;;;5.14;100.00;96820.53;1032942;28;20022;-49
2021/10/01 00:50:59;;;;;;;7.40;5.00;;;;;;;5.17;100.00;96813.47;1033095;28;20014;-51
2021/10/01 00:51:30;;;;;;;10.32;4.95;;;;;;;5.18;100.00;96820.38;1029154;28;20286;-51
2021/10/01 00:52:01;;;;;;;9.38;4.85;;;;;;;5.14;100.00;96820.53;1029170;28;20071;-50
2021/10/01 00:52:32;;;;;;;5.75;4.28;;;;;;;5.11;100.00;96811.09;1032781;28;20535;-50
2021/10/01 00:53:03;;;;;;;9.55;4.45;;;;;;;5.15;100.00;96812.69;1028986;28;20480;-50
2021/10/01 00:53:34;;;;;;;6.28;3.63;;;;;;;5.19;100.00;96800.44;1021154;29;20342;-50
2021/10/01 00:54:05;;;;;;;6.32;4.15;;;;;;;5.19;100.00;96801.28;1024860;29;20291;-49
2021/10/01 00:54:36;;;;;;;9.27;4.68;;;;;;;5.18;100.00;96811.72;1028873;28;20007;-51
2021/10/01 00:55:07;;;;;;;5.97;3.85;;;;;;;5.17;100.00;96812.63;1032768;28;20029;-50
2021/10/01 00:55:37;;;;;;;6.55;4.00;;;;;;;5.17;100.00;96807.44;1032817;28;20464;-51
2021/10/01 00:56:08;;;;;;;9.30;4.35;;;;;;;5.13;100.00;96808.44;1025210;28;20290;-50
2021/10/01 00:56:39;;;;;;;6.07;4.20;;;;;;;5.09;100.00;96799.91;1020637;29;20052;-49
2021/10/01 00:57:10;;;;;;;9.02;3.97;;;;;;;5.09;100.00;96806.84;1020925;29;20016;-50
2021/10/01 00:57:41;;;;;;;7.25;4.55;;;;;;;5.08;100.00;96803.41;1024924;29;20286;-50
2021/10/01 00:58:11;;;;;;;5.55;4.03;;;;;;;5.04;100.00;96800.06;1020898;29;20020;-49
2021/10/01 00:58:42;;;;;;;5.68;4.22;;;;;;;5.06;100.00;96800.84;1020727;29;20549;-50
2021/10/01 00:59:13;;;;;;;5.65;4.25;;;;;;;5.01;100.00;96797.59;1032746;28;20408;-49
2021/10/01 00:59:44;;;;;;;7.38;4.38;;;;;;;5.03;100.00;96800.09;1032719;28;20039;-51
2021/10/01 01:00:26;;;;;;;7.53;4.20;;;;;;;5.02;100.00;96798.44;1036917;28;20245;-49
2021/10/01 01:01:09;;;;;;;6.68;4.28;;;;;;;5.03;100.00;96792.31;1028825;28;20074;-49
2021/10/01 01:01:41;;;;;;;6.43;3.95;;;;;;;5.01;100.00;96794.13;1032298;28;20836;-49
2021/10/01 01:02:12;;;;;;;6.78;3.97;;;;;;;4.99;100.00;96794.19;1028458;28;20321;-50
2021/10/01 01:02:42;;;;;;;6.03;3.72;;;;;;;4.97;100.00;96795.13;1030358;28;20098;-50
2021/10/01 01:03:13;;;;;;;5.72;3.72;;;;;;;5.01;100.00;96791.53;1024570;29;20011;-49
2021/10/01 01:03:55;;;;;;;8.88;4.47;;;;;;;4.99;100.00;96791.59;1020878;29;20036;-49
2021/10/01 01:04:26;;;;;;;7.88;4.63;;;;;;;4.98;100.00;96791.66;1024661;29;20363;-49
2021/10/01 01:04:56;;;;;;;8.18;4.32;;;;;;;4.98;100.00;96791.66;1028723;28;20301;-49
2021/10/01 01:05:35;;;;;;;8.13;3.95;;;;;;;4.98;100.00;96792.47;1026406;28;20481;-49
2021/10/01 01:06:45;;;;;;;7.80;3.67;;;;;;;5.01;100.00;96794.13;1024945;29;20050;-49
2021/10/01 01:07:37;;;;;;;6.97;4.20;;;;;;;4.97;100.00;96788.19;1025358;28;20619;-50
2021/10/01 01:08:08;;;;;;;8.45;3.67;;;;;;;4.97;100.00;96784.75;1028850;28;20111;-49
2021/10/01 01:08:54;;;;;;;6.25;3.97;;;;;;;4.97;100.00;96784.75;1024617;29;20270;-50
2021/10/01 01:09:47;;;;;;;7.32;3.58;;;;;;;4.96;100.00;96785.66;1032686;28;20669;-49
2021/10/01 01:10:17;;;;;;;6.97;4.10;;;;;;;4.97;100.00;96776.94;1033732;28;20759;-49
2021/10/01 01:10:48;;;;;;;5.50;3.50;;;;;;;4.96;100.00;96780.47;1036773;28;20257;-49
2021/10/01 01:11:43;;;;;;;6.53;4.10;;;;;;;4.96;100.00;96780.47;1032710;28;20118;-50
2021/10/01 01:12:35;;;;;;;6.10;3.90;;;;;;;5.00;100.00;96779.44;1032218;28;20270;-49
2021/10/01 01:13:07;;;;;;;8.85;4.20;;;;;;;5.00;100.00;96776.84;1030427;28;20271;-49
2021/10/01 01:13:46;;;;;;;7.30;4.13;;;;;;;4.98;100.00;96774.31;1032882;28;20297;-50
2021/10/01 01:14:20;;;;;;;7.78;4.10;;;;;;;5.02;100.00;96780.25;1032780;28;20257;-50
2021/10/01 01:14:55;;;;;;;5.60;3.70;;;;;;;4.99;100.00;96777.75;1026771;28;20255;-50
2021/10/01 01:15:28;;;;;;;5.55;3.97;;;;;;;4.96;100.00;96785.66;1020894;29;20268;-49
2021/10/01 01:16:04;;;;;;;9.13;4.25;;;;;;;4.93;100.00;96777.97;1020227;28;20319;-51
2021/10/01 01:16:35;;;;;;;5.90;3.95;;;;;;;4.91;100.00;96778.00;1022257;29;20839;-50
2021/10/01 01:17:06;;;;;;;6.45;3.97;;;;;;;4.91;100.00;96779.75;1018028;29;20367;-49
2021/10/01 01:17:44;;;;;;;6.03;3.83;;;;;;;4.90;100.00;96778.94;1016830;29;20032;-50
2021/10/01 01:18:19;;;;;;;6.00;3.75;;;;;;;4.86;100.00;96775.59;1020901;29;20252;-49
2021/10/01 01:18:52;;;;;;;8.32;4.00;;;;;;;4.88;100.00;96770.34;1020611;29;20903;-49
2021/10/01 01:20:03;;;;;;;6.80;3.97;;;;;;;4.89;100.00;96769.44;1028570;28;20262;-50
2021/10/01 01:20:49;;;;;;;6.90;4.18;;;;;;;4.87;100.00;96772.06;1032197;28;20265;-49
2021/10/01 01:21:26;;;;;;;6.82;4.30;;;;;;;4.88;100.00;96770.34;1035716;28;20257;-50
2021/10/01 01:22:04;;;;;;;7.57;4.03;;;;;;;4.87;100.00;96768.63;1028720;28;20274;-49
2021/10/01 01:23:15;;;;;;;7.47;4.13;;;;;;;4.89;100.00;96772.03;1020404;29;20350;-49
2021/10/01 01:23:54;;;;;;;4.82;3.53;;;;;;;4.85;100.00;96762.66;1027109;28;20668;-49
2021/10/01 01:24:39;;;;;;;11.05;3.50;;;;;;;4.86;100.00;96777.31;1034107;28;20602;-49
2021/10/01 01:25:49;;;;;;;9.20;4.03;;;;;;;4.85;100.00;96776.47;1032759;28;20272;-50
2021/10/01 01:26:32;;;;;;;5.68;3.75;;;;;;;4.83;100.00;96770.50;1037224;28;20257;-50
2021/10/01 01:27:18;;;;;;;5.82;3.63;;;;;;;4.82;100.00;96766.22;1031695;28;20090;-50
2021/10/01 01:28:08;;;;;;;6.95;4.53;;;;;;;4.79;100.00;96763.72;1028485;28;20282;-49
2021/10/01 01:29:02;;;;;;;5.63;3.97;;;;;;;4.78;100.00;96759.41;1032945;28;20284;-49
2021/10/01 01:29:38;;;;;;;8.35;4.60;;;;;;;4.79;100.00;96761.13;1030533;28;20126;-50
2021/10/01 01:30:11;;;;;;;8.90;5.05;;;;;;;4.77;100.00;96755.13;1033050;28;20253;-50
2021/10/01 01:30:44;;;;;;;6.38;4.07;;;;;;;4.78;100.00;96759.41;1032830;28;20775;-50
2021/10/01 01:31:45;;;;;;;6.50;3.75;;;;;;;4.78;100.00;96758.56;1026505;28;20715;-50
2021/10/01 01:32:15;;;;;;;6.97;4.03;;;;;;;4.79;100.00;96762.88;1025391;28;20259;-50
2021/10/01 01:32:47;;;;;;;7.60;4.30;;;;;;;4.79;100.00;96763.72;1028626;28;20118;-49
2021/10/01 01:33:21;;;;;;;8.07;4.20;;;;;;;4.76;100.00;96756.00;1032759;28;20534;-51
2021/10/01 01:33:52;;;;;;;7.03;4.10;;;;;;;4.74;100.00;96759.56;1025451;28;20261;-50
2021/10/01 01:34:43;;;;;;;6.60;3.75;;;;;;;4.79;100.00;96755.91;1021089;29;20323;-48
2021/10/01 01:35:20;;;;;;;6.60;3.63;;;;;;;4.80;100.00;96762.78;1024855;29;20258;-49
2021/10/01 01:35:52;;;;;;;6.18;4.35;;;;;;;4.79;100.00;96749.88;1024484;29;20293;-50
2021/10/01 01:36:23;;;;;;;6.22;3.90;;;;;;;4.80;100.00;96751.56;1024715;29;20875;-50
2021/10/01 01:36:57;;;;;;;5.15;3.47;;;;;;;4.78;100.00;96753.38;1032444;28;20261;-50
2021/10/01 01:37:32;;;;;;;5.90;3.78;;;;;;;4.77;100.00;96746.50;1029101;28;20029;-51
2021/10/01 01:38:12;;;;;;;8.43;3.83;;;;;;;4.77;100.00;96747.34;1033802;28;20276;-49
2021/10/01 01:38:45;;;;;;;6.13;3.85;;;;;;;4.77;100.00;96751.69;1036753;28;20257;-49
2021/10/01 01:39:16;;;;;;;11.02;4.32;;;;;;;4.76;100.00;96745.63;1030858;28;20019;-49
2021/10/01 01:39:47;;;;;;;7.90;4.10;;;;;;;4.73;100.00;96747.47;1024527;29;20822;-49
2021/10/01 01:40:18;;;;;;;7.32;4.50;;;;;;;4.75;100.00;96748.28;1032435;28;20097;-50
2021/10/01 01:40:51;;;;;;;9.50;3.80;;;;;;;4.70;100.00;96743.25;1024532;29;20018;-49
2021/10/01 01:41:22;;;;;;;6.25;4.30;;;;;;;4.73;100.00;96745.75;1028616;28;20708;-49
2021/10/01 01:41:54;;;;;;;8.48;4.18;;;;;;;4.75;100.00;96749.16;1024546;29;20262;-49
2021/10/01 01:42:25;;;;;;;7.43;4.05;;;;;;;4.77;100.00;96743.91;1025091;28;20262;-49
2021/10/01 01:42:57;;;;;;;6.47;4.03;;;;;;;4.74;100.00;96746.59;1020656;29;20255;-50
2021/10/01 01:43:28;;;;;;;5.70;3.90;;;;;;;4.76;100.00;96745.63;1021030;29;20024;-50
2021/10/01 01:43:58;;;;;;;8.07;4.47;;;;;;;4.74;100.00;96742.25;1028669;28;20296;-48
2021/10/01 01:44:29;;;;;;;6.70;4.63;;;;;;;4.76;100.00;96740.44;1033047;28;20268;-49
2021/10/01 01:45:00;;;;;;;7.90;3.95;;;;;;;4.78;100.00;96741.22;1020868;29;20482;-49
2021/10/01 01:45:31;;;;;;;6.60;3.60;;;;;;;4.77;100.00;96742.16;1024674;29;20026;-49
2021/10/01 01:46:02;;;;;;;6.38;3.95;;;;;;;4.76;100.00;96737.84;1020743;29;20354;-50
2021/10/01 01:46:33;;;;;;;6.28;4.20;;;;;;;4.75;100.00;96738.75;1028972;28;20019;-50
2021/10/01 01:47:03;;;;;;;7.10;4.50;;;;;;;4.76;100.00;96735.25;1025186;29;20027;-50
2021/10/01 01:47:34;;;;;;;7.38;4.03;;;;;;;4.79;100.00;96739.50;1024982;29;20026;-50
2021/10/01 01:48:06;;;;;;;9.27;4.05;;;;;;;4.77;100.00;96736.13;1024925;29;20030;-50
2021/10/01 01:48:37;;;;;;;4.97;3.60;;;;;;;4.78;100.00;96727.41;1032895;28;20029;-50
2021/10/01 01:49:09;;;;;;;8.48;4.10;;;;;;;4.79;100.00;96735.16;1024813;29;20258;-49
2021/10/01 01:49:41;;;;;;;7.32;4.47;;;;;;;4.79;100.00;96729.97;1016912;29;20020;-50
2021/10/01 01:50:11;;;;;;;5.75;3.85;;;;;;;4.77;100.00;96730.94;1024649;29;20281;-49
2021/10/01 01:50:42;;;;;;;6.47;4.13;;;;;;;4.75;100.00;96730.97;1016961;29;20307;-50
2021/10/01 01:51:13;;;;;;;6.43;3.88;;;;;;;4.77;100.00;96736.97;1020818;29;20083;-48
2021/10/01 01:51:44;;;;;;;6.10;4.20;;;;;;;4.78;100.00;96741.22;1021325;28;20094;-50
2021/10/01 01:52:15;;;;;;;6.30;4.10;;;;;;;4.78;100.00;96724.81;1025378;28;20019;-50
2021/10/01 01:52:45;;;;;;;6.47;4.05;;;;;;;4.76;100.00;96731.81;1024463;28;20035;-50
2021/10/01 01:53:16;;;;;;;6.72;3.97;;;;;;;4.76;100.00;96734.41;1024768;29;20281;-49
2021/10/01 01:53:47;;;;;;;7.88;4.03;;;;;;;4.74;100.00;96726.66;1028399;28;20113;-51
2021/10/01 01:54:18;;;;;;;6.88;3.95;;;;;;;4.74;100.00;96721.47;1024834;29;20431;-50
2021/10/01 01:54:50;;;;;;;7.10;4.22;;;;;;;4.77;100.00;96725.72;1020775;29;20106;-49
2021/10/01 01:55:21;;;;;;;6.13;4.18;;;;;;;4.76;100.00;96731.81;1021141;29;20264;-51
2021/10/01 01:55:52;;;;;;;13.00;4.90;;;;;;;4.76;100.00;96724.88;1016633;29;20277;-49
2021/10/01 01:56:22;;;;;;;6.75;3.83;;;;;;;4.80;100.00;96736.00;1017108;29;20378;-51
2021/10/01 01:56:54;;;;;;;7.55;4.43;;;;;;;4.81;100.00;96725.56;1028418;28;20050;-49
2021/10/01 01:57:24;;;;;;;7.53;4.20;;;;;;;4.80;100.00;96736.84;1029058;28;20282;-50
2021/10/01 01:57:55;;;;;;;6.57;4.30;;;;;;;4.77;100.00;96730.94;1024812;29;20774;-50
2021/10/01 01:58:26;;;;;;;6.53;4.22;;;;;;;4.75;100.00;96728.38;1020775;29;20135;-49
2021/10/01 01:58:58;;;;;;;8.27;4.88;;;;;;;4.75;100.00;96723.19;1020677;29;20073;-51
2021/10/01 01:59:29;;;;;;;7.63;4.82;;;;;;;4.72;100.00;96725.03;1020887;29;20012;-50
2021/10/01 01:59:59;;;;;;;7.75;4.85;;;;;;;4.76;100.00;96722.28;1024926;29;20266;-50
2021/10/01 02:00:30;;;;;;;8.23;4.57;;;;;;;4.76;100.00;96711.88;1028771;28;20038;-50
2021/10/01 02:01:02;;;;;;;6.68;4.82;;;;;;;4.76;100.00;96716.25;1021238;29;20016;-50
2021/10/01 02:01:33;;;;;;;7.78;4.68;;;;;;;4.74;100.00;96716.28;1028927;28;20034;-50
2021/10/01 02:02:05;;;;;;;6.55;4.72;;;;;;;4.75;100.00;96718.00;1028845;28;20290;-50
2021/10/01 02:02:36;;;;;;;7.55;5.35;;;;;;;4.76;100.00;96717.06;1028759;28;20023;-49
2021/10/01 02:03:07;;;;;;;8.35;5.43;;;;;;;4.77;100.00;96716.19;1032113;28;20269;-50
2021/10/01 02:03:37;;;;;;;9.10;5.20;;;;;;;4.78;100.00;96717.03;1029064;28;20033;-49
2021/10/01 02:04:08;;;;;;;10.43;5.60;;;;;;;4.77;100.00;96717.94;1024960;29;20474;-49
2021/10/01 02:04:39;;;;;;;9.48;5.97;;;;;;;4.76;100.00;96722.28;1028803;28;20109;-50
2021/10/01 02:05:10;;;;;;;13.20;5.97;;;;;;;4.76;100.00;96719.66;1024709;28;20086;-50
2021/10/01 02:05:41;;;;;;;6.93;5.40;;;;;;;4.79;100.00;96718.75;1028574;28;20038;-49
2021/10/01 02:06:11;;;;;;;7.10;5.43;;;;;;;4.77;100.00;96721.38;1024945;29;20086;-49
2021/10/01 02:06:42;;;;;;;7.00;5.30;;;;;;;4.76;100.00;96718.84;1024887;29;20027;-50
2021/10/01 02:07:13;;;;;;;6.72;5.13;;;;;;;4.74;100.00;96720.63;1020833;29;20445;-51
2021/10/01 02:07:44;;;;;;;8.98;5.35;;;;;;;4.75;100.00;96722.31;1020988;29;20507;-49
2021/10/01 02:08:16;;;;;;;9.38;5.70;;;;;;;4.72;100.00;96718.09;1037469;28;20272;-49
2021/10/01 02:08:46;;;;;;;8.50;6.38;;;;;;;4.73;100.00;96725.00;1032804;28;20030;-51
2021/10/01 02:09:17;;;;;;;8.50;5.90;;;;;;;4.71;100.00;96721.59;1024372;29;20290;-50
2021/10/01 02:09:48;;;;;;;9.02;5.95;;;;;;;4.66;100.00;96716.56;1028886;28;20042;-49
2021/10/01 02:10:20;;;;;;;9.68;6.47;;;;;;;4.70;100.00;96724.25;1024852;29;20019;-50
2021/10/01 02:10:51;;;;;;;8.55;6.20;;;;;;;4.68;100.00;96721.69;1024887;29;20015;-51
2021/10/01 02:11:22;;;;;;;10.63;6.65;;;;;;;4.70;100.00;96719.06;1021131;29;20247;-49
2021/10/01 02:11:53;;;;;;;9.25;6.00;;;;;;;4.68;100.00;96722.53;1020965;29;20255;-51
2021/10/01 02:12:25;;;;;;;7.72;5.85;;;;;;;4.69;100.00;96713.00;1016931;29;20480;-48
2021/10/01 02:12:58;;;;;;;12.23;6.75;;;;;;;4.68;100.00;96724.28;1024497;29;20072;-50
2021/10/01 02:13:28;;;;;;;8.27;5.85;;;;;;;4.70;100.00;96724.25;1020605;29;20338;-49
2021/10/01 02:13:59;;;;;;;10.10;6.03;;;;;;;4.68;100.00;96717.34;1024768;29;20259;-51
2021/10/01 02:14:31;;;;;;;10.07;6.20;;;;;;;4.73;100.00;96716.34;1024830;28;20090;-50
2021/10/01 02:15:02;;;;;;;8.90;5.93;;;;;;;4.73;100.00;96713.72;1032930;28;20113;-50
2021/10/01 02:15:34;;;;;;;10.05;6.90;;;;;;;4.77;100.00;96717.94;1024968;28;20266;-50
2021/10/01 02:16:05;;;;;;;6.93;5.63;;;;;;;4.75;100.00;96718.00;1020626;29;20047;-50
2021/10/01 02:16:36;;;;;;;7.70;5.97;;;;;;;4.72;100.00;96712.91;1020958;29;20283;-49
2021/10/01 02:17:07;;;;;;;7.53;6.15;;;;;;;4.74;100.00;96711.09;1024856;29;20295;-50
2021/10/01 02:17:37;;;;;;;14.32;6.40;;;;;;;4.72;100.00;96712.91;1020911;29;20465;-50
2021/10/01 02:18:09;;;;;;;8.40;6.25;;;;;;;4.75;100.00;96709.34;1020986;29;20043;-50
2021/10/01 02:18:40;;;;;;;9.07;5.60;;;;;;;4.75;100.00;96712.81;1024723;29;20019;-49
2021/10/01 02:19:11;;;;;;;7.03;5.68;;;;;;;4.75;100.00;96707.59;1025312;28;20673;-50
2021/10/01 02:19:42;;;;;;;7.75;6.32;;;;;;;4.77;100.00;96704.97;1029373;28;20326;-49
2021/10/01 02:20:13;;;;;;;7.07;5.40;;;;;;;4.77;100.00;96705.81;1025190;28;20337;-49
2021/10/01 02:20:44;;;;;;;10.30;5.90;;;;;;;4.79;100.00;96706.59;1025071;28;20496;-50
2021/10/01 02:21:15;;;;;;;7.55;5.95;;;;;;;4.82;100.00;96705.63;1028813;28;20037;-50
2021/10/01 02:21:46;;;;;;;8.02;5.80;;;;;;;4.80;100.00;96705.69;1036644;28;20284;-50
2021/10/01 02:22:17;;;;;;;10.43;5.80;;;;;;;4.82;100.00;96700.44;1025148;29;20014;-50
2021/10/01 02:22:48;;;;;;;9.25;5.90;;;;;;;4.81;100.00;96704.78;1016603;29;20275;-48
2021/10/01 02:23:18;;;;;;;7.97;5.93;;;;;;;4.81;100.00;96696.16;1021031;29;20376;-49
2021/10/01 02:23:49;;;;;;;10.70;6.45;;;;;;;4.84;100.00;96702.09;1028734;28;20085;-51
2021/10/01 02:24:21;;;;;;;7.28;5.78;;;;;;;4.84;100.00;96701.22;1021139;29;20026;-49
2021/10/01 02:24:52;;;;;;;8.25;5.20;;;;;;;4.83;100.00;96702.97;1028938;28;20086;-50
2021/10/01 02:28:39;;;;;;;8.05;6.10;;;;;;;4.82;100.00;96692.66;1032745;28;20261;-49
2021/10/01 02:29:20;;;;;;;8.23;6.43;;;;;;;4.80;100.00;96703.06;1024721;29;20259;-48
2021/10/01 02:30:13;;;;;;;10.70;6.63;;;;;;;4.78;100.00;96694.50;1023495;29;20259;-49
2021/10/01 02:30:44;;;;;;;12.93;6.60;;;;;;;4.75;100.00;96696.34;1025936;28;20267;-49
2021/10/01 02:31:22;;;;;;;10.38;7.13;;;;;;;4.75;100.00;96701.53;1024679;29;20259;-49
2021/10/01 02:32:13;;;;;;;10.15;6.65;;;;;;;4.73;100.00;96693.84;1024911;29;20023;-50
2021/10/01 02:33:03;;;;;;;8.18;6.22;;;;;;;4.73;100.00;96690.38;1028614;28;20282;-51
2021/10/01 02:33:40;;;;;;;9.07;6.68;;;;;;;4.72;100.00;96689.53;1037032;28;20264;-51
2021/10/01 02:34:10;;;;;;;10.43;6.72;;;;;;;4.71;100.00;96687.84;1028924;28;20258;-49
2021/10/01 02:34:44;;;;;;;9.18;6.30;;;;;;;4.73;100.00;96687.78;1020768;29;20347;-50
2021/10/01 02:35:14;;;;;;;7.20;6.50;;;;;;;4.73;100.00;96683.47;1020603;29;20079;-50
2021/10/01 02:35:45;;;;;;;11.68;7.00;;;;;;;4.74;100.00;96689.50;1021250;29;20264;-51
2021/10/01 02:36:16;;;;;;;9.93;6.57;;;;;;;4.74;100.00;96686.88;1026280;28;20019;-51
2021/10/01 02:36:47;;;;;;;8.57;6.65;;;;;;;4.75;100.00;96685.97;1037055;28;20364;-49
2021/10/01 02:37:18;;;;;;;10.18;6.53;;;;;;;4.75;100.00;96685.97;1032567;28;20018;-49
2021/10/01 02:37:48;;;;;;;13.00;7.88;;;;;;;4.74;100.00;96690.31;1028628;28;20031;-50
2021/10/01 02:38:19;;;;;;;9.77;7.38;;;;;;;4.73;100.00;96687.78;1027969;28;20022;-48
2021/10/01 02:38:51;;;;;;;10.55;7.60;;;;;;;4.72;100.00;96684.34;1020061;29;20012;-49